Miles Pond, Vermont
Current Conditions -  °F | °C
As of 7:35 AM on Friday 28 Nov 2014 (Local Time) from KCDA Reporting Station
Light Snow Light Snow  
Wind Chill: 22°   Ceiling: 2200
Heat Index: 22°   Visibility: 3mi
Dew Point: 19°   Wind: 0mph
Humidity: 87%   Direction: NA
Pressure: 30.01"   Gusts: NA
Location:  44.5627°N, 71.7775°W
Report Text: KCDA 281235Z AUTO 00000KT 3SM -SN BKN022 OVC029 M06/M07 A3001 RMK AO2 T10561074
Loading
Personal Weather Stations






























Interactive Weather Map New forecast layout! Learn more

10-Day Weather Forecast

Advertisements
Track Severe Weather on mobile